Time;durP1;ratioP1;P1;durP2;ratioP2;P2;SDS_P1;SDS_P2;PMS_P1;PMS_P2;Temp;Humidity;BMP_temperature;BMP_pressure;BME280_temperature;BME280_humidity;BME280_pressure;Samples;Min_cycle;Max_cycle;Signal;HPM_P1;HPM_P2
2022/05/05 00:01:52;;;;;;;12.60;11.50;;;;;;;;;;5057047;28;20442;-75
2022/05/05 00:04:19;;;;;;;12.90;11.50;;;;;;;;;;5055826;28;20452;-74
2022/05/05 00:06:46;;;;;;;11.50;10.57;;;;;;;;;;5056172;28;20504;-76
2022/05/05 00:09:14;;;;;;;12.93;11.80;;;;;;;;;;5056264;28;20453;-75
2022/05/05 00:14:31;;;;;;;13.70;12.50;;;;;;;;;;5054994;28;20424;-75
2022/05/05 00:17:00;;;;;;;16.43;13.00;;;;;;;;;;5054967;28;20814;-76
2022/05/05 00:19:28;;;;;;;15.60;14.00;;;;;;;;;;5054853;28;20441;-76
2022/05/05 00:21:55;;;;;;;15.80;14.40;;;;;;;;;;5055274;28;20441;-76
2022/05/05 00:24:22;;;;;;;16.47;14.90;;;;;;;;;;5054159;28;20442;-75
2022/05/05 00:26:49;;;;;;;16.30;14.60;;;;;;;;;;5054726;28;20867;-76
2022/05/05 00:29:17;;;;;;;17.03;15.33;;;;;;;;;;5054131;28;20445;-75
2022/05/05 00:31:45;;;;;;;16.23;14.90;;;;;;;;;;5054506;28;20445;-75
2022/05/05 00:34:12;;;;;;;17.03;15.33;;;;;;;;;;5054566;28;20785;-75
2022/05/05 00:36:40;;;;;;;18.30;16.70;;;;;;;;;;5054400;28;20941;-75
2022/05/05 00:39:07;;;;;;;17.77;16.37;;;;;;;;;;5054081;28;20450;-75
2022/05/05 00:41:34;;;;;;;19.23;17.53;;;;;;;;;;5054314;28;20520;-75
2022/05/05 00:44:03;;;;;;;17.50;15.80;;;;;;;;;;5053686;28;20894;-77
2022/05/05 00:46:30;;;;;;;17.50;15.70;;;;;;;;;;5053829;28;21014;-76
2022/05/05 00:48:58;;;;;;;18.10;16.50;;;;;;;;;;5053970;28;20816;-74
2022/05/05 00:51:25;;;;;;;16.87;15.43;;;;;;;;;;5054220;28;20824;-77
2022/05/05 00:53:54;;;;;;;18.00;16.47;;;;;;;;;;5052669;28;20852;-77
2022/05/05 00:56:22;;;;;;;17.40;15.90;;;;;;;;;;5052691;28;20477;-76
2022/05/05 00:58:49;;;;;;;19.17;17.20;;;;;;;;;;5052651;28;20909;-76
2022/05/05 01:01:18;;;;;;;18.53;16.97;;;;;;;;;;5052915;28;20449;-76
2022/05/05 01:03:45;;;;;;;17.80;16.30;;;;;;;;;;5052595;28;20446;-76
2022/05/05 01:06:14;;;;;;;18.73;17.03;;;;;;;;;;5051341;28;20500;-76
2022/05/05 01:08:42;;;;;;;18.53;17.03;;;;;;;;;;5052894;28;20469;-75
2022/05/05 01:11:09;;;;;;;18.13;16.33;;;;;;;;;;5052295;28;20472;-76
2022/05/05 01:13:38;;;;;;;18.50;16.70;;;;;;;;;;5051919;28;20449;-76
2022/05/05 01:16:06;;;;;;;17.60;16.00;;;;;;;;;;5052309;28;20811;-77
2022/05/05 01:18:33;;;;;;;18.67;17.07;;;;;;;;;;5052413;28;20583;-75
2022/05/05 01:21:00;;;;;;;17.53;15.93;;;;;;;;;;5052190;28;20453;-76
2022/05/05 01:23:28;;;;;;;17.97;16.37;;;;;;;;;;5051602;28;20463;-75
2022/05/05 01:28:42;;;;;;;18.43;16.83;;;;;;;;;;5052330;28;20895;-77
2022/05/05 01:31:09;;;;;;;16.87;15.57;;;;;;;;;;5051753;28;20540;-76
2022/05/05 01:33:36;;;;;;;16.40;14.90;;;;;;;;;;5052167;28;20453;-76
2022/05/05 01:36:04;;;;;;;18.80;17.00;;;;;;;;;;5052077;28;20442;-77
2022/05/05 01:38:37;;;;;;;20.63;18.90;;;;;;;;;;5051810;28;20776;-75
2022/05/05 01:41:04;;;;;;;19.70;18.00;;;;;;;;;;5051794;28;20937;-75
2022/05/05 01:43:31;;;;;;;19.00;17.30;;;;;;;;;;5051549;28;20453;-75
2022/05/05 01:45:58;;;;;;;20.00;18.30;;;;;;;;;;5051547;28;20849;-76
2022/05/05 01:48:25;;;;;;;20.20;18.27;;;;;;;;;;5051605;28;20448;-77
2022/05/05 01:50:52;;;;;;;21.33;19.40;;;;;;;;;;5052076;28;20456;-76
2022/05/05 01:53:19;;;;;;;21.37;19.47;;;;;;;;;;5051425;28;20501;-75
2022/05/05 01:55:48;;;;;;;20.87;18.87;;;;;;;;;;5052022;28;20442;-74
2022/05/05 01:58:15;;;;;;;21.60;19.60;;;;;;;;;;5051418;28;20566;-75
2022/05/05 02:00:43;;;;;;;21.77;19.67;;;;;;;;;;5051328;28;20501;-76
2022/05/05 02:03:13;;;;;;;21.30;18.87;;;;;;;;;;5051040;28;20445;-76
2022/05/05 02:05:41;;;;;;;21.30;19.20;;;;;;;;;;5051401;28;20462;-75
2022/05/05 02:08:08;;;;;;;22.00;19.00;;;;;;;;;;5051443;28;20532;-75
2022/05/05 02:10:35;;;;;;;17.73;16.33;;;;;;;;;;5051112;28;20941;-75
2022/05/05 02:13:04;;;;;;;19.33;17.60;;;;;;;;;;5050521;28;20968;-76
2022/05/05 02:15:32;;;;;;;20.23;18.33;;;;;;;;;;5051044;28;20870;-75
2022/05/05 02:18:06;;;;;;;18.93;17.27;;;;;;;;;;5050988;28;20466;-76
2022/05/05 02:20:34;;;;;;;19.67;17.60;;;;;;;;;;5050620;28;20455;-76
2022/05/05 02:23:01;;;;;;;18.00;16.13;;;;;;;;;;5051180;28;20441;-77
2022/05/05 02:25:28;;;;;;;20.50;18.23;;;;;;;;;;5051188;28;20448;-77
2022/05/05 02:27:55;;;;;;;19.33;16.13;;;;;;;;;;5050685;28;20907;-75
2022/05/05 02:30:24;;;;;;;16.37;14.97;;;;;;;;;;5050882;28;20432;-75
2022/05/05 02:32:52;;;;;;;15.67;14.07;;;;;;;;;;5050761;28;20941;-74
2022/05/05 02:35:19;;;;;;;16.80;15.40;;;;;;;;;;5050750;28;20445;-76
2022/05/05 02:40:30;;;;;;;16.53;14.93;;;;;;;;;;5050552;28;20412;-76
2022/05/05 02:42:58;;;;;;;19.20;16.83;;;;;;;;;;5050955;28;20454;-76
2022/05/05 02:45:26;;;;;;;20.27;18.03;;;;;;;;;;5051197;28;20453;-75
2022/05/05 02:47:54;;;;;;;18.53;16.23;;;;;;;;;;5050834;28;20481;-76
2022/05/05 02:50:22;;;;;;;19.70;17.70;;;;;;;;;;5051212;28;20465;-76
2022/05/05 02:52:49;;;;;;;18.20;16.37;;;;;;;;;;5050829;28;20469;-75
2022/05/05 02:55:15;;;;;;;19.03;17.17;;;;;;;;;;5051176;28;20437;-75
2022/05/05 02:57:42;;;;;;;18.47;16.87;;;;;;;;;;5050968;28;20473;-75
2022/05/05 03:00:11;;;;;;;20.13;18.27;;;;;;;;;;5044316;28;20446;-76
2022/05/05 03:02:41;;;;;;;19.90;17.83;;;;;;;;;;5050195;28;20507;-76
2022/05/05 03:05:08;;;;;;;20.80;18.67;;;;;;;;;;5042721;28;20449;-76
2022/05/05 03:07:35;;;;;;;19.60;17.67;;;;;;;;;;5050870;28;20484;-75
2022/05/05 03:10:03;;;;;;;19.47;17.70;;;;;;;;;;5050740;28;20448;-75
2022/05/05 03:12:30;;;;;;;20.50;18.50;;;;;;;;;;5050058;28;20446;-76
2022/05/05 03:14:57;;;;;;;19.63;17.93;;;;;;;;;;5050310;28;20449;-75
2022/05/05 03:17:24;;;;;;;19.07;17.17;;;;;;;;;;5049981;28;20469;-75
2022/05/05 03:19:52;;;;;;;19.03;17.37;;;;;;;;;;5050521;28;20449;-75
2022/05/05 03:22:19;;;;;;;19.73;17.63;;;;;;;;;;5050115;28;20538;-76
2022/05/05 03:24:46;;;;;;;20.00;18.00;;;;;;;;;;5050149;28;20453;-75
2022/05/05 03:27:14;;;;;;;18.60;16.90;;;;;;;;;;5050171;28;20527;-76
2022/05/05 03:29:41;;;;;;;20.50;18.37;;;;;;;;;;5050122;28;20441;-74
2022/05/05 03:32:09;;;;;;;19.57;17.57;;;;;;;;;;5050132;28;20453;-74
2022/05/05 03:34:36;;;;;;;19.23;17.40;;;;;;;;;;5049640;28;20434;-75
2022/05/05 03:37:04;;;;;;;19.70;17.80;;;;;;;;;;5050619;28;20469;-74
2022/05/05 03:39:31;;;;;;;20.73;18.73;;;;;;;;;;5050392;28;20441;-76
2022/05/05 03:41:58;;;;;;;19.70;18.00;;;;;;;;;;5050617;28;20858;-76
2022/05/05 03:44:25;;;;;;;21.63;17.07;;;;;;;;;;5050072;28;20446;-75
2022/05/05 03:46:52;;;;;;;18.90;17.10;;;;;;;;;;5050102;28;20484;-74
2022/05/05 03:49:19;;;;;;;19.20;17.20;;;;;;;;;;5049696;28;20434;-74
2022/05/05 03:51:46;;;;;;;18.50;16.80;;;;;;;;;;5049990;28;20453;-76
2022/05/05 03:54:15;;;;;;;19.93;18.00;;;;;;;;;;5049949;28;20912;-74
2022/05/05 03:56:42;;;;;;;20.30;18.30;;;;;;;;;;5049734;28;20469;-75
2022/05/05 03:59:09;;;;;;;20.80;18.77;;;;;;;;;;5050070;28;20445;-75
2022/05/05 04:01:36;;;;;;;20.80;18.67;;;;;;;;;;5049902;28;20441;-75
2022/05/05 04:04:03;;;;;;;20.27;18.13;;;;;;;;;;5049735;28;20453;-75
2022/05/05 04:06:30;;;;;;;21.03;19.00;;;;;;;;;;5048971;28;20501;-75
2022/05/05 04:08:57;;;;;;;21.33;19.43;;;;;;;;;;5048356;28;20651;-75
2022/05/05 04:11:26;;;;;;;22.70;20.30;;;;;;;;;;5053779;28;20449;-76
2022/05/05 04:13:53;;;;;;;24.17;21.70;;;;;;;;;;5038643;28;20943;-75
2022/05/05 04:16:20;;;;;;;23.30;21.10;;;;;;;;;;5029968;28;20466;-76
2022/05/05 04:18:47;;;;;;;23.93;21.60;;;;;;;;;;5029902;28;20501;-74
2022/05/05 04:21:14;;;;;;;22.97;20.87;;;;;;;;;;5029861;28;20532;-75
2022/05/05 04:23:41;;;;;;;24.37;21.70;;;;;;;;;;5032937;28;20453;-76
2022/05/05 04:26:10;;;;;;;23.17;20.93;;;;;;;;;;5041669;28;20447;-76
2022/05/05 04:28:39;;;;;;;23.20;20.80;;;;;;;;;;5029647;28;20821;-75
2022/05/05 04:31:06;;;;;;;22.23;19.93;;;;;;;;;;5038128;28;20445;-74
2022/05/05 04:33:33;;;;;;;21.20;19.20;;;;;;;;;;5048974;28;21008;-75
2022/05/05 04:36:00;;;;;;;24.17;21.70;;;;;;;;;;5049548;28;20442;-76
2022/05/05 04:38:27;;;;;;;23.27;21.03;;;;;;;;;;5050038;28;20453;-75
2022/05/05 04:40:54;;;;;;;23.93;21.50;;;;;;;;;;5051593;28;20452;-76
2022/05/05 04:43:21;;;;;;;24.37;21.97;;;;;;;;;;5053530;28;20453;-75
2022/05/05 04:45:50;;;;;;;27.13;23.07;;;;;;;;;;5053506;28;20453;-73
2022/05/05 04:48:17;;;;;;;23.43;21.03;;;;;;;;;;5053206;28;20488;-74
2022/05/05 04:50:44;;;;;;;26.20;23.10;;;;;;;;;;5046564;28;20461;-75
2022/05/05 04:53:11;;;;;;;24.40;22.07;;;;;;;;;;5050232;28;20488;-77
2022/05/05 04:55:38;;;;;;;23.67;21.27;;;;;;;;;;5053127;28;20449;-77
2022/05/05 04:58:05;;;;;;;25.43;23.00;;;;;;;;;;5052914;28;20465;-76
2022/05/05 05:00:33;;;;;;;24.17;21.97;;;;;;;;;;5053476;28;20456;-74
2022/05/05 05:03:01;;;;;;;25.43;23.13;;;;;;;;;;5052913;28;20450;-75
2022/05/05 05:05:28;;;;;;;23.97;21.77;;;;;;;;;;5053938;28;20448;-76
2022/05/05 05:07:55;;;;;;;24.20;22.10;;;;;;;;;;5053485;28;20477;-75
2022/05/05 05:10:22;;;;;;;26.30;23.73;;;;;;;;;;5052742;28;20430;-75
2022/05/05 05:12:50;;;;;;;25.83;23.43;;;;;;;;;;5053177;28;20442;-75
2022/05/05 05:15:17;;;;;;;23.17;21.00;;;;;;;;;;5053534;28;20453;-76
2022/05/05 05:17:44;;;;;;;23.10;20.87;;;;;;;;;;5052763;28;20835;-75
2022/05/05 05:20:13;;;;;;;24.17;21.97;;;;;;;;;;5052938;28;20445;-75
2022/05/05 05:22:40;;;;;;;25.07;22.67;;;;;;;;;;5052784;28;20477;-75
2022/05/05 05:25:07;;;;;;;26.37;23.67;;;;;;;;;;5052126;28;20454;-76
2022/05/05 05:27:34;;;;;;;24.40;22.00;;;;;;;;;;5052168;28;20477;-76
2022/05/05 05:30:01;;;;;;;24.27;21.97;;;;;;;;;;5052228;28;20442;-77
2022/05/05 05:32:28;;;;;;;23.67;21.27;;;;;;;;;;5051876;28;20461;-75
2022/05/05 05:34:55;;;;;;;23.40;21.30;;;;;;;;;;5052326;28;20457;-75
2022/05/05 05:37:24;;;;;;;24.47;22.17;;;;;;;;;;5052438;28;20465;-75
2022/05/05 05:39:51;;;;;;;23.53;21.23;;;;;;;;;;5052510;28;20897;-76
2022/05/05 05:42:18;;;;;;;23.53;21.40;;;;;;;;;;5053061;28;21012;-75
2022/05/05 05:44:45;;;;;;;26.30;23.63;;;;;;;;;;5052331;28;20450;-76
2022/05/05 05:47:12;;;;;;;24.47;21.93;;;;;;;;;;5052343;28;20477;-75
2022/05/05 05:49:39;;;;;;;24.20;21.87;;;;;;;;;;5052707;28;20456;-76
2022/05/05 05:52:07;;;;;;;25.27;22.07;;;;;;;;;;5051763;28;20887;-76
2022/05/05 05:54:35;;;;;;;23.17;21.07;;;;;;;;;;5052214;28;20445;-76
2022/05/05 05:57:02;;;;;;;25.33;23.00;;;;;;;;;;5052376;28;20484;-76
2022/05/05 05:59:29;;;;;;;23.10;21.10;;;;;;;;;;5052261;28;20441;-75
2022/05/05 06:04:41;;;;;;;24.07;21.57;;;;;;;;;;5052290;28;20902;-76
2022/05/05 06:07:08;;;;;;;27.83;21.93;;;;;;;;;;5052045;28;20469;-76
2022/05/05 06:09:36;;;;;;;24.90;22.40;;;;;;;;;;5053408;28;20572;-76
2022/05/05 06:12:04;;;;;;;24.10;21.57;;;;;;;;;;5054304;28;20537;-75
2022/05/05 06:14:31;;;;;;;23.90;21.50;;;;;;;;;;5053003;28;20476;-76
2022/05/05 06:16:58;;;;;;;22.70;20.60;;;;;;;;;;5053666;28;20884;-75
2022/05/05 06:19:25;;;;;;;25.37;22.80;;;;;;;;;;5052454;28;20937;-76
2022/05/05 06:21:52;;;;;;;23.97;21.77;;;;;;;;;;5052001;28;20449;-76
2022/05/05 06:24:19;;;;;;;25.37;22.83;;;;;;;;;;5051444;28;20449;-75
2022/05/05 06:26:47;;;;;;;24.10;21.73;;;;;;;;;;5051810;28;21277;-74
2022/05/05 06:29:14;;;;;;;24.40;22.07;;;;;;;;;;5051373;28;21039;-75
2022/05/05 06:31:41;;;;;;;22.53;20.43;;;;;;;;;;5052187;28;20460;-76
2022/05/05 06:34:10;;;;;;;22.10;20.20;;;;;;;;;;5051665;28;20441;-76
2022/05/05 06:36:37;;;;;;;22.07;19.83;;;;;;;;;;5051959;28;20473;-76
2022/05/05 06:39:04;;;;;;;21.97;19.97;;;;;;;;;;5041471;28;20454;-77
2022/05/05 06:41:32;;;;;;;22.70;20.43;;;;;;;;;;5051527;28;20973;-75
2022/05/05 06:44:00;;;;;;;22.70;20.60;;;;;;;;;;5051078;28;20738;-76
2022/05/05 06:46:29;;;;;;;20.83;19.10;;;;;;;;;;5043428;28;21000;-75
2022/05/05 06:48:56;;;;;;;21.37;19.40;;;;;;;;;;5051401;28;20891;-75
2022/05/05 06:51:23;;;;;;;21.40;19.43;;;;;;;;;;5051688;28;20452;-76
2022/05/05 06:53:50;;;;;;;21.53;19.53;;;;;;;;;;5051760;28;20451;-75
2022/05/05 06:56:17;;;;;;;21.80;19.80;;;;;;;;;;5051889;28;20484;-77
2022/05/05 06:58:44;;;;;;;20.60;18.40;;;;;;;;;;5051609;28;20449;-76
2022/05/05 07:06:38;;;;;;;17.97;16.40;;;;;;;;;;5050104;28;20795;-77
2022/05/05 07:11:49;;;;;;;18.67;16.97;;;;;;;;;;5045300;28;20524;-77
2022/05/05 07:14:16;;;;;;;16.37;14.87;;;;;;;;;;5049137;28;20937;-77
2022/05/05 07:16:45;;;;;;;18.30;16.80;;;;;;;;;;5051175;28;20896;-77
2022/05/05 07:19:12;;;;;;;17.57;15.97;;;;;;;;;;5051016;28;20811;-77
2022/05/05 07:21:39;;;;;;;16.30;14.90;;;;;;;;;;5050546;28;20444;-77
2022/05/05 07:24:06;;;;;;;15.30;13.77;;;;;;;;;;5050475;28;20445;-76
2022/05/05 07:26:33;;;;;;;15.23;13.90;;;;;;;;;;5050987;28;20984;-76
2022/05/05 07:29:00;;;;;;;14.90;13.70;;;;;;;;;;5049024;28;20481;-76
2022/05/05 07:31:27;;;;;;;16.40;14.83;;;;;;;;;;5034456;28;20548;-76
2022/05/05 07:33:57;;;;;;;15.53;14.13;;;;;;;;;;5039989;28;20450;-76
2022/05/05 07:36:24;;;;;;;16.00;14.70;;;;;;;;;;5042954;28;20477;-77
2022/05/05 07:38:51;;;;;;;15.60;14.30;;;;;;;;;;5059551;28;20852;-75
2022/05/05 07:41:18;;;;;;;14.80;13.60;;;;;;;;;;5050580;28;20449;-75
2022/05/05 07:43:45;;;;;;;14.47;13.27;;;;;;;;;;5050453;28;20465;-76
2022/05/05 07:46:14;;;;;;;14.40;13.17;;;;;;;;;;5050113;28;20457;-75
2022/05/05 07:48:41;;;;;;;14.60;13.40;;;;;;;;;;5050638;28;20505;-76
2022/05/05 07:51:09;;;;;;;14.70;13.50;;;;;;;;;;5049367;28;20557;-75
2022/05/05 07:53:36;;;;;;;15.30;13.90;;;;;;;;;;5050268;28;20457;-78
2022/05/05 07:56:04;;;;;;;16.30;14.90;;;;;;;;;;5049797;28;21009;-77
2022/05/05 07:58:31;;;;;;;15.30;13.90;;;;;;;;;;5050417;28;20435;-75
2022/05/05 08:00:58;;;;;;;16.40;15.00;;;;;;;;;;5050485;28;20496;-76
2022/05/05 08:03:25;;;;;;;15.57;14.17;;;;;;;;;;5049458;28;20532;-76
2022/05/05 08:05:52;;;;;;;16.13;14.63;;;;;;;;;;5050540;28;20500;-75
2022/05/05 08:08:21;;;;;;;17.00;15.60;;;;;;;;;;5050134;28;20487;-75
2022/05/05 08:10:53;;;;;;;15.63;14.27;;;;;;;;;;5048514;28;20445;-76
2022/05/05 08:13:20;;;;;;;16.43;15.07;;;;;;;;;;5049730;28;20452;-77
2022/05/05 08:15:47;;;;;;;16.20;14.60;;;;;;;;;;5052170;28;20804;-76
2022/05/05 08:18:14;;;;;;;15.50;14.10;;;;;;;;;;5047857;28;20504;-75
2022/05/05 08:20:41;;;;;;;16.97;15.27;;;;;;;;;;5052900;28;20485;-76
2022/05/05 08:23:08;;;;;;;16.40;14.93;;;;;;;;;;5054197;28;20441;-77
2022/05/05 08:28:33;;;;;;;17.87;16.27;;;;;;;;;;5054756;28;20494;-76
2022/05/05 08:31:00;;;;;;;18.10;16.60;;;;;;;;;;5054689;28;20497;-76
2022/05/05 08:33:28;;;;;;;17.67;16.10;;;;;;;;;;5054387;28;20449;-77
2022/05/05 08:35:55;;;;;;;17.20;15.70;;;;;;;;;;5054527;28;20450;-77
2022/05/05 08:38:22;;;;;;;16.90;15.50;;;;;;;;;;5054107;28;20445;-76
2022/05/05 08:40:51;;;;;;;17.53;16.13;;;;;;;;;;5054094;28;20453;-76
2022/05/05 08:43:18;;;;;;;18.07;16.47;;;;;;;;;;5053837;28;20453;-75
2022/05/05 08:45:46;;;;;;;18.17;16.40;;;;;;;;;;5054123;28;20441;-76
2022/05/05 08:48:13;;;;;;;18.30;16.50;;;;;;;;;;5042713;28;20528;-76
2022/05/05 08:50:44;;;;;;;17.37;15.77;;;;;;;;;;5045032;28;20446;-75
2022/05/05 08:53:13;;;;;;;19.83;18.23;;;;;;;;;;5051765;28;20444;-76
2022/05/05 08:55:40;;;;;;;19.37;17.77;;;;;;;;;;5054924;28;20437;-74
2022/05/05 08:58:08;;;;;;;19.03;17.40;;;;;;;;;;5053055;28;21282;-76
2022/05/05 09:00:36;;;;;;;19.67;17.90;;;;;;;;;;5053879;28;20499;-75
2022/05/05 09:03:04;;;;;;;22.57;20.47;;;;;;;;;;5053474;28;20453;-74
2022/05/05 09:05:46;;;;;;;23.77;21.77;;;;;;;;;;5053735;28;20823;-77
2022/05/05 09:08:14;;;;;;;22.67;20.67;;;;;;;;;;5053167;28;20489;-75
2022/05/05 09:10:43;;;;;;;22.50;20.60;;;;;;;;;;5053457;28;20452;-75
2022/05/05 09:13:11;;;;;;;21.23;19.13;;;;;;;;;;5053633;28;20536;-75
2022/05/05 09:15:41;;;;;;;21.33;19.43;;;;;;;;;;5053385;28;20801;-74
2022/05/05 09:18:13;;;;;;;22.20;20.23;;;;;;;;;;5053903;28;21087;-74
2022/05/05 09:20:40;;;;;;;21.00;19.10;;;;;;;;;;5055037;28;20495;-73
2022/05/05 09:23:07;;;;;;;20.47;18.77;;;;;;;;;;5054110;28;21055;-75
2022/05/05 09:25:46;;;;;;;21.17;19.30;;;;;;;;;;5055152;28;20442;-73
2022/05/05 09:28:19;;;;;;;22.20;20.20;;;;;;;;;;5052803;28;20464;-73
2022/05/05 09:30:47;;;;;;;23.20;21.20;;;;;;;;;;5046428;28;20464;-74
2022/05/05 09:33:15;;;;;;;23.47;21.13;;;;;;;;;;5049956;28;20489;-75
2022/05/05 09:35:42;;;;;;;21.60;19.50;;;;;;;;;;5046786;28;20979;-77
2022/05/05 09:38:09;;;;;;;22.63;20.70;;;;;;;;;;5052659;28;20976;-74
2022/05/05 09:40:36;;;;;;;22.70;20.60;;;;;;;;;;5052790;28;20449;-75
2022/05/05 09:43:03;;;;;;;23.83;20.60;;;;;;;;;;5052476;28;20814;-75
2022/05/05 09:45:32;;;;;;;21.47;19.33;;;;;;;;;;5050772;28;20459;-76
2022/05/05 09:48:01;;;;;;;23.63;21.53;;;;;;;;;;5048497;28;20471;-75
2022/05/05 09:50:29;;;;;;;23.60;21.50;;;;;;;;;;5052284;28;20497;-77
2022/05/05 09:58:34;;;;;;;22.50;20.60;;;;;;;;;;5052692;28;20402;-77
2022/05/05 10:01:06;;;;;;;23.20;21.30;;;;;;;;;;5052332;28;20509;-77
2022/05/05 10:06:23;;;;;;;22.53;20.70;;;;;;;;;;5051544;28;20552;-75
2022/05/05 10:08:53;;;;;;;25.67;23.47;;;;;;;;;;5051844;28;20527;-75
2022/05/05 10:11:20;;;;;;;25.37;22.70;;;;;;;;;;5052342;28;20441;-75
2022/05/05 10:13:47;;;;;;;25.63;23.63;;;;;;;;;;5052118;28;20539;-76
2022/05/05 10:16:16;;;;;;;24.40;22.40;;;;;;;;;;5051806;28;20810;-75
2022/05/05 10:18:43;;;;;;;23.73;21.53;;;;;;;;;;5051771;28;20450;-75
2022/05/05 10:21:12;;;;;;;25.47;23.07;;;;;;;;;;5051996;28;20444;-75
2022/05/05 10:23:44;;;;;;;26.70;24.17;;;;;;;;;;5051537;28;20972;-75
2022/05/05 10:26:12;;;;;;;25.97;23.40;;;;;;;;;;5052039;28;20520;-75
2022/05/05 10:28:43;;;;;;;25.13;22.93;;;;;;;;;;5051767;28;20550;-75
2022/05/05 10:31:13;;;;;;;24.57;22.47;;;;;;;;;;5051514;28;20460;-75
2022/05/05 10:34:01;;;;;;;25.63;23.43;;;;;;;;;;5051001;28;20445;-75
2022/05/05 10:36:28;;;;;;;24.80;22.70;;;;;;;;;;5049790;28;20856;-74
2022/05/05 10:38:56;;;;;;;24.27;22.13;;;;;;;;;;5050622;28;20425;-76
2022/05/05 10:41:36;;;;;;;24.30;22.30;;;;;;;;;;5050906;28;20854;-74
2022/05/05 10:44:33;;;;;;;24.57;22.37;;;;;;;;;;5051011;28;20461;-74
2022/05/05 10:47:02;;;;;;;23.80;21.60;;;;;;;;;;4969317;28;20561;-75
2022/05/05 10:49:47;;;;;;;25.20;23.10;;;;;;;;;;5032995;28;20501;-75
2022/05/05 10:52:38;;;;;;;27.47;25.03;;;;;;;;;;5051675;28;20638;-75
2022/05/05 10:55:26;;;;;;;25.70;23.33;;;;;;;;;;5031376;28;20855;-75
2022/05/05 10:57:53;;;;;;;24.13;21.87;;;;;;;;;;5051597;28;20497;-75
2022/05/05 11:00:22;;;;;;;23.83;21.93;;;;;;;;;;5050948;28;20456;-74
2022/05/05 11:03:09;;;;;;;26.23;23.83;;;;;;;;;;5050754;28;20437;-74
2022/05/05 11:05:38;;;;;;;25.03;22.60;;;;;;;;;;5051137;28;20533;-73
2022/05/05 11:08:23;;;;;;;25.37;23.07;;;;;;;;;;5050806;28;20454;-75
2022/05/05 11:11:39;;;;;;;25.27;23.07;;;;;;;;;;5050640;28;21016;-75
2022/05/05 11:13:39;;;;;;;25.93;23.63;;;;;;;;;;5050504;28;20498;-75
2022/05/05 11:22:10;;;;;;;28.57;25.97;;;;;;;;;;4975884;28;20488;-75
2022/05/05 11:24:37;;;;;;;28.10;25.77;;;;;;;;;;5050552;28;20456;-75
2022/05/05 11:27:05;;;;;;;28.67;25.97;;;;;;;;;;5050942;28;20461;-74
2022/05/05 11:29:32;;;;;;;29.57;26.63;;;;;;;;;;5050865;28;21003;-76
2022/05/05 11:32:00;;;;;;;31.17;28.43;;;;;;;;;;5050459;28;20472;-76
2022/05/05 11:34:34;;;;;;;28.83;26.23;;;;;;;;;;5050678;28;20448;-75
2022/05/05 11:37:02;;;;;;;30.40;27.27;;;;;;;;;;5050436;28;20466;-75
2022/05/05 11:39:32;;;;;;;30.80;28.00;;;;;;;;;;5050970;28;20482;-75
2022/05/05 11:42:00;;;;;;;28.53;25.97;;;;;;;;;;5051484;28;20437;-75
2022/05/05 11:44:27;;;;;;;29.10;26.60;;;;;;;;;;5050751;28;20441;-75
2022/05/05 11:46:54;;;;;;;30.30;27.60;;;;;;;;;;5050824;28;20969;-74
2022/05/05 11:49:22;;;;;;;30.20;27.43;;;;;;;;;;5050264;28;20481;-75
2022/05/05 11:51:49;;;;;;;30.63;28.00;;;;;;;;;;5054001;28;20460;-75
2022/05/05 11:54:17;;;;;;;31.67;28.73;;;;;;;;;;5054445;28;20468;-74
2022/05/05 11:56:46;;;;;;;30.83;28.10;;;;;;;;;;5054220;28;20564;-74
2022/05/05 12:02:05;;;;;;;33.17;30.17;;;;;;;;;;5054752;28;20479;-75
2022/05/05 12:04:32;;;;;;;30.70;27.77;;;;;;;;;;5054309;28;20795;-75
2022/05/05 12:06:59;;;;;;;30.17;27.60;;;;;;;;;;5054492;28;20468;-76
2022/05/05 12:09:28;;;;;;;32.30;29.30;;;;;;;;;;5054276;28;20508;-74
2022/05/05 12:11:56;;;;;;;32.60;29.50;;;;;;;;;;5054364;28;20473;-74
2022/05/05 12:14:23;;;;;;;34.80;31.20;;;;;;;;;;5054195;28;20445;-74
2022/05/05 12:16:51;;;;;;;36.97;33.40;;;;;;;;;;5054544;28;20469;-74
2022/05/05 12:19:19;;;;;;;34.90;31.50;;;;;;;;;;5054230;28;20853;-76
2022/05/05 12:21:54;;;;;;;35.10;31.80;;;;;;;;;;5053728;28;20449;-75
2022/05/05 12:24:22;;;;;;;35.33;31.70;;;;;;;;;;5053575;28;20947;-74
2022/05/05 12:26:49;;;;;;;35.90;32.33;;;;;;;;;;5053867;28;20512;-73
2022/05/05 12:29:19;;;;;;;37.00;33.53;;;;;;;;;;5053522;28;20477;-76
2022/05/05 12:31:54;;;;;;;35.97;31.60;;;;;;;;;;5053632;28;20838;-75
2022/05/05 12:34:25;;;;;;;36.13;32.63;;;;;;;;;;5053758;28;20820;-75
2022/05/05 12:37:06;;;;;;;36.30;32.47;;;;;;;;;;5054938;28;20894;-74
2022/05/05 12:39:33;;;;;;;36.97;33.27;;;;;;;;;;5054241;28;20441;-74
2022/05/05 12:42:00;;;;;;;36.57;32.67;;;;;;;;;;5053733;28;20945;-76
2022/05/05 12:44:33;;;;;;;34.67;31.27;;;;;;;;;;5053212;28;20532;-74
2022/05/05 12:47:03;;;;;;;34.20;30.70;;;;;;;;;;5053220;28;20469;-74
2022/05/05 12:49:36;;;;;;;35.90;32.10;;;;;;;;;;5053192;28;20559;-76
2022/05/05 12:52:04;;;;;;;35.47;31.87;;;;;;;;;;5053582;28;20445;-74
2022/05/05 13:00:04;;;;;;;35.13;31.50;;;;;;;;;;5053386;28;20439;-74
2022/05/05 13:02:31;;;;;;;33.53;29.70;;;;;;;;;;5051993;28;20540;-74
2022/05/05 13:04:58;;;;;;;34.63;31.00;;;;;;;;;;5053559;28;20460;-75
2022/05/05 13:07:28;;;;;;;35.93;32.33;;;;;;;;;;5052973;28;20515;-76
2022/05/05 13:09:55;;;;;;;34.20;30.60;;;;;;;;;;5052664;28;20493;-74
2022/05/05 13:12:22;;;;;;;33.63;30.20;;;;;;;;;;5052661;28;20433;-75
2022/05/05 13:14:49;;;;;;;33.60;30.10;;;;;;;;;;5052568;28;20468;-75
2022/05/05 13:17:18;;;;;;;33.03;29.77;;;;;;;;;;5053110;28;20466;-74
2022/05/05 13:19:45;;;;;;;34.37;30.63;;;;;;;;;;5052385;28;20473;-75
2022/05/05 13:22:13;;;;;;;32.27;29.00;;;;;;;;;;5051889;28;20952;-74
2022/05/05 13:24:40;;;;;;;33.20;29.57;;;;;;;;;;5051806;28;20446;-74
2022/05/05 13:27:07;;;;;;;30.83;27.90;;;;;;;;;;5052072;28;20472;-74
2022/05/05 13:29:34;;;;;;;33.17;29.97;;;;;;;;;;5052123;28;20485;-76
2022/05/05 13:32:01;;;;;;;31.83;28.60;;;;;;;;;;5051869;28;20863;-75
2022/05/05 13:34:29;;;;;;;32.83;29.40;;;;;;;;;;5052241;28;20461;-74
2022/05/05 13:36:56;;;;;;;31.43;28.07;;;;;;;;;;5052093;28;20472;-75
2022/05/05 13:39:23;;;;;;;32.10;29.07;;;;;;;;;;5052069;28;20545;-75
2022/05/05 13:41:50;;;;;;;29.97;27.03;;;;;;;;;;5051997;28;20454;-74
2022/05/05 13:44:18;;;;;;;31.53;28.23;;;;;;;;;;5051866;28;20445;-75
2022/05/05 13:46:45;;;;;;;31.10;28.10;;;;;;;;;;5051926;28;20960;-75
2022/05/05 13:49:12;;;;;;;31.75;28.75;;;;;;;;;;5050895;28;20451;-75
2022/05/05 13:51:40;;;;;;;31.00;27.87;;;;;;;;;;5052046;28;20223;-75
2022/05/05 13:54:07;;;;;;;27.83;25.13;;;;;;;;;;5051188;28;20856;-75
2022/05/05 13:56:34;;;;;;;28.90;26.00;;;;;;;;;;5051364;28;20485;-75
2022/05/05 13:59:03;;;;;;;28.43;25.63;;;;;;;;;;5052196;28;20449;-74
2022/05/05 14:01:30;;;;;;;28.80;26.00;;;;;;;;;;5051290;28;20453;-76
2022/05/05 14:03:57;;;;;;;30.10;25.50;;;;;;;;;;5050873;28;20913;-76
2022/05/05 14:06:24;;;;;;;28.47;25.87;;;;;;;;;;5051602;28;20454;-76
2022/05/05 14:14:21;;;;;;;27.80;25.13;;;;;;;;;;5050777;28;20425;-76
2022/05/05 14:16:48;;;;;;;28.70;25.90;;;;;;;;;;5050991;28;20469;-76
2022/05/05 14:19:15;;;;;;;28.77;26.07;;;;;;;;;;5053514;28;20449;-74
2022/05/05 14:21:42;;;;;;;26.70;24.17;;;;;;;;;;5053560;28;20449;-75
2022/05/05 14:24:11;;;;;;;27.17;24.57;;;;;;;;;;5053537;28;20826;-75
2022/05/05 14:26:39;;;;;;;28.03;25.17;;;;;;;;;;5059480;28;20466;-76
2022/05/05 14:29:06;;;;;;;28.00;25.47;;;;;;;;;;5063721;28;20441;-75
2022/05/05 14:31:33;;;;;;;28.80;26.10;;;;;;;;;;5071611;28;20507;-74
2022/05/05 14:34:00;;;;;;;30.88;28.10;;;;;;;;;;5074105;28;20431;-74
2022/05/05 14:36:27;;;;;;;30.87;27.10;;;;;;;;;;5075326;28;20272;-76
2022/05/05 14:38:55;;;;;;;31.63;28.92;;;;;;;;;;5071501;28;20450;-75
2022/05/05 14:41:23;;;;;;;31.80;29.00;;;;;;;;;;5072135;28;20443;-76
2022/05/05 14:43:51;;;;;;;30.60;27.67;;;;;;;;;;5070713;28;20233;-74
2022/05/05 14:46:18;;;;;;;30.87;27.93;;;;;;;;;;5072447;28;20449;-77
2022/05/05 14:48:45;;;;;;;29.07;26.03;;;;;;;;;;5070348;28;20442;-74
2022/05/05 14:51:12;;;;;;;30.87;28.00;;;;;;;;;;5071864;28;20448;-78
2022/05/05 14:53:39;;;;;;;29.70;26.90;;;;;;;;;;5074124;28;20442;-76
2022/05/05 14:56:06;;;;;;;29.70;26.93;;;;;;;;;;5073459;28;20438;-76
2022/05/05 14:58:34;;;;;;;27.70;25.00;;;;;;;;;;5073239;28;20447;-75
2022/05/05 15:01:01;;;;;;;25.97;23.50;;;;;;;;;;5068959;28;20422;-75
2022/05/05 15:03:29;;;;;;;30.25;27.65;;;;;;;;;;5071752;28;20450;-76
2022/05/05 15:05:56;;;;;;;29.70;27.00;;;;;;;;;;5071437;28;20210;-77
2022/05/05 15:08:23;;;;;;;32.60;29.50;;;;;;;;;;5064437;28;20442;-76
2022/05/05 15:10:50;;;;;;;30.93;28.00;;;;;;;;;;5064900;28;20513;-76
2022/05/05 15:13:17;;;;;;;36.83;33.30;;;;;;;;;;5047375;28;20897;-75